createdAt,value
2019-05-01T00:01:36.895Z,10.90
2019-05-01T00:07:40.872Z,10.50
2019-05-01T00:10:22.802Z,10.50
2019-05-01T00:13:08.447Z,10.70
2019-05-01T00:15:59.325Z,10.60
2019-05-01T00:18:39.323Z,10.50
2019-05-01T00:21:20.222Z,10.40
2019-05-01T00:24:00.272Z,10.40
2019-05-01T00:26:39.801Z,10.70
2019-05-01T00:29:20.851Z,10.60
2019-05-01T00:32:02.807Z,10.50
2019-05-01T00:34:43.097Z,10.20
2019-05-01T00:37:24.102Z,10.30
2019-05-01T00:40:05.222Z,10.50
2019-05-01T00:42:46.433Z,10.60
2019-05-01T00:45:27.603Z,10.70
2019-05-01T00:48:07.762Z,10.80
2019-05-01T00:50:47.676Z,10.70
2019-05-01T00:53:31.889Z,10.80
2019-05-01T00:56:37.420Z,10.90
2019-05-01T01:02:28.802Z,10.60
2019-05-01T01:05:09.373Z,10.50
2019-05-01T01:07:50.550Z,10.50
2019-05-01T01:10:30.934Z,10.40
2019-05-01T01:13:11.948Z,10.40
2019-05-01T01:15:52.265Z,10.50
2019-05-01T01:18:33.422Z,10.50
2019-05-01T01:21:00.329Z,10.70
2019-05-01T01:23:40.354Z,10.50
2019-05-01T01:26:20.700Z,10.20
2019-05-01T01:29:00.651Z,10.20
2019-05-01T01:31:40.878Z,10.20
2019-05-01T01:34:21.145Z,10.30
2019-05-01T01:37:02.223Z,10.30
2019-05-01T01:39:43.049Z,10.20
2019-05-01T01:48:32.770Z,10.30
2019-05-01T01:51:14.819Z,10.20
2019-05-01T01:53:54.962Z,9.90
2019-05-01T01:56:34.949Z,9.80
2019-05-01T01:59:14.833Z,9.90
2019-05-01T02:05:08.419Z,10.00
2019-05-01T02:07:56.899Z,9.60
2019-05-01T02:10:44.795Z,9.70
2019-05-01T02:13:28.022Z,9.70
2019-05-01T02:16:17.350Z,9.80
2019-05-01T02:18:59.600Z,9.70
2019-05-01T02:21:41.130Z,9.80
2019-05-01T02:24:21.670Z,9.90
2019-05-01T02:27:06.353Z,9.80
2019-05-01T02:29:49.919Z,9.90
2019-05-01T02:32:29.727Z,10.00
2019-05-01T02:35:09.638Z,9.70
2019-05-01T02:37:49.458Z,9.70
2019-05-01T02:40:29.274Z,9.80
2019-05-01T02:49:50.855Z,9.80
2019-05-01T02:52:31.263Z,9.70
2019-05-01T02:58:28.558Z,9.60
2019-05-01T03:01:08.852Z,9.60
2019-05-01T03:03:49.931Z,9.60
2019-05-01T03:06:31.182Z,9.50
2019-05-01T03:09:12.161Z,9.70
2019-05-01T03:11:53.118Z,9.70
2019-05-01T03:14:34.329Z,9.70
2019-05-01T03:17:34.790Z,9.80
2019-05-01T03:20:35.207Z,9.80
2019-05-01T03:26:26.003Z,9.60
2019-05-01T03:29:06.317Z,9.80
2019-05-01T03:32:12.982Z,9.90
2019-05-01T03:34:15.183Z,9.70
2019-05-01T03:37:01.938Z,9.80
2019-05-01T03:39:43.889Z,9.80
2019-05-01T03:42:12.028Z,10.00
2019-05-01T03:45:12.070Z,10.00
2019-05-01T03:47:40.427Z,10.00
2019-05-01T03:50:22.331Z,9.90
2019-05-01T03:53:03.530Z,9.80
2019-05-01T03:55:47.582Z,9.80
2019-05-01T03:58:33.098Z,9.60
2019-05-01T04:01:32.708Z,9.60
2019-05-01T04:04:43.398Z,9.70
2019-05-01T04:07:36.070Z,9.50
2019-05-01T04:10:34.243Z,9.50
2019-05-01T04:13:15.639Z,9.40
2019-05-01T04:15:56.591Z,9.50
2019-05-01T04:18:37.432Z,9.50
2019-05-01T04:21:19.715Z,9.50
2019-05-01T04:23:59.671Z,9.40
2019-05-01T04:26:39.679Z,9.50
2019-05-01T04:29:37.042Z,9.60
2019-05-01T04:32:26.550Z,9.70
2019-05-01T04:38:25.968Z,9.60
2019-05-01T04:41:07.078Z,9.70
2019-05-01T04:43:47.992Z,9.60
2019-05-01T04:46:28.900Z,9.60
2019-05-01T04:48:56.033Z,9.60
2019-05-01T04:51:36.014Z,9.50
2019-05-01T04:54:16.417Z,9.30
2019-05-01T04:56:56.581Z,9.20
2019-05-01T04:59:36.603Z,9.40
2019-05-01T05:05:40.566Z,9.40
2019-05-01T05:08:28.967Z,9.30
2019-05-01T05:11:16.405Z,9.40
2019-05-01T05:14:16.046Z,9.30
2019-05-01T05:16:59.464Z,9.50
2019-05-01T05:19:39.798Z,9.50
2019-05-01T05:22:19.923Z,9.40
2019-05-01T05:25:00.088Z,9.50
2019-05-01T05:27:41.406Z,9.40
2019-05-01T05:30:22.489Z,9.40
2019-05-01T05:33:18.232Z,9.30
2019-05-01T05:35:51.883Z,9.30
2019-05-01T05:38:39.513Z,9.20
2019-05-01T05:41:21.969Z,9.20
2019-05-01T05:44:03.022Z,8.90
2019-05-01T05:46:43.302Z,8.90
2019-05-01T05:49:23.501Z,9.10
2019-05-01T05:52:31.881Z,9.00
2019-05-01T06:04:59.537Z,8.90
2019-05-01T06:11:20.460Z,9.00
2019-05-01T06:14:31.336Z,8.90
2019-05-01T06:20:57.104Z,8.90
2019-05-01T06:24:06.905Z,9.00
2019-05-01T06:26:48.373Z,9.00
2019-05-01T06:29:31.062Z,9.20
2019-05-01T06:31:58.717Z,9.30
2019-05-01T06:34:52.386Z,8.90
2019-05-01T06:37:20.949Z,9.00
2019-05-01T06:40:10.903Z,8.90
2019-05-01T06:42:51.474Z,8.80
2019-05-01T06:45:32.959Z,9.00
2019-05-01T06:48:14.332Z,9.20
2019-05-01T06:51:18.905Z,9.50
2019-05-01T06:54:20.213Z,9.50
2019-05-01T06:57:01.506Z,9.50
2019-05-01T06:59:44.054Z,9.40
2019-05-01T07:05:54.430Z,9.80
2019-05-01T07:08:44.008Z,10.00
2019-05-01T07:11:25.106Z,9.90
2019-05-01T07:14:06.090Z,9.70
2019-05-01T07:16:47.244Z,9.60
2019-05-01T07:19:47.759Z,9.60
2019-05-01T07:22:28.630Z,9.40
2019-05-01T07:25:09.533Z,9.60
2019-05-01T07:27:37.584Z,9.40
2019-05-01T07:30:50.001Z,9.30
2019-05-01T07:33:34.550Z,9.30
2019-05-01T07:36:22.509Z,9.70
2019-05-01T07:39:05.144Z,9.80
2019-05-01T07:41:46.598Z,9.80
2019-05-01T07:44:34.994Z,9.40
2019-05-01T07:47:41.193Z,9.50
2019-05-01T07:50:31.357Z,9.60
2019-05-01T07:53:07.065Z,9.60
2019-05-01T07:55:48.602Z,9.80
2019-05-01T07:58:28.260Z,9.90
2019-05-01T08:04:35.966Z,10.10
2019-05-01T08:07:09.034Z,10.30
2019-05-01T08:09:50.310Z,10.30
2019-05-01T08:12:32.835Z,10.40
2019-05-01T08:15:18.406Z,10.40
2019-05-01T08:24:22.872Z,10.40
2019-05-01T08:27:02.827Z,10.50
2019-05-01T08:30:03.543Z,10.60
2019-05-01T08:32:50.201Z,10.70
2019-05-01T08:35:31.674Z,10.90
2019-05-01T08:38:01.271Z,10.80
2019-05-01T08:40:50.694Z,10.80
2019-05-01T08:43:54.219Z,10.70
2019-05-01T08:49:55.849Z,10.70
2019-05-01T08:52:35.286Z,10.70
2019-05-01T08:55:15.341Z,10.80
2019-05-01T08:57:55.310Z,10.70
2019-05-01T09:00:38.972Z,10.80
2019-05-01T09:03:18.755Z,10.80
2019-05-01T09:06:00.803Z,10.90
2019-05-01T09:08:41.774Z,10.80
2019-05-01T09:11:09.764Z,10.50
2019-05-01T09:13:59.042Z,10.60
2019-05-01T09:17:00.322Z,10.60
2019-05-01T09:19:44.239Z,10.80
2019-05-01T09:22:24.637Z,11.20
2019-05-01T09:25:05.269Z,11.00
2019-05-01T09:28:10.473Z,11.20
2019-05-01T09:31:01.321Z,11.20
2019-05-01T09:33:38.112Z,11.20
2019-05-01T09:36:23.490Z,11.50
2019-05-01T09:39:05.293Z,11.50
2019-05-01T09:41:47.417Z,11.60
2019-05-01T09:44:29.450Z,11.20
2019-05-01T09:47:10.942Z,11.40
2019-05-01T09:49:53.947Z,11.40
2019-05-01T09:56:03.229Z,11.50
2019-05-01T09:58:43.051Z,11.60
2019-05-01T10:01:24.122Z,11.50
2019-05-01T10:04:05.661Z,11.80
2019-05-01T10:06:54.220Z,11.70
2019-05-01T10:09:47.367Z,11.50
2019-05-01T10:12:47.037Z,11.50
2019-05-01T10:15:27.637Z,11.60
2019-05-01T10:18:07.544Z,11.40
2019-05-01T10:20:47.952Z,11.60
2019-05-01T10:23:27.793Z,11.90
2019-05-01T10:29:29.482Z,11.80
2019-05-01T10:32:36.317Z,11.90
2019-05-01T10:35:44.012Z,11.80
2019-05-01T10:38:12.933Z,12.40
2019-05-01T10:41:15.422Z,12.60
2019-05-01T10:47:27.426Z,12.80
2019-05-01T10:50:08.361Z,12.90
2019-05-01T10:52:49.708Z,13.10
2019-05-01T10:55:37.710Z,13.20
2019-05-01T10:58:26.440Z,13.30
2019-05-01T11:01:25.740Z,13.60
2019-05-01T11:04:06.071Z,13.70
2019-05-01T11:06:45.982Z,13.40
2019-05-01T11:09:16.488Z,13.20
2019-05-01T11:12:03.153Z,13.20
2019-05-01T11:14:33.932Z,13.10
2019-05-01T11:17:03.249Z,13.20
2019-05-01T11:19:44.297Z,13.20
2019-05-01T11:22:13.361Z,13.40
2019-05-01T11:24:42.502Z,13.60
2019-05-01T11:27:31.297Z,13.80
2019-05-01T11:30:13.164Z,14.10
2019-05-01T11:33:00.351Z,14.20
2019-05-01T11:35:49.189Z,13.90
2019-05-01T11:44:34.654Z,14.00
2019-05-01T11:50:27.145Z,14.70
2019-05-01T11:53:08.657Z,14.60
2019-05-01T11:55:49.902Z,15.10
2019-05-01T11:58:30.840Z,15.30
2019-05-01T12:04:16.634Z,15.60
2019-05-01T12:06:56.822Z,15.20
2019-05-01T12:09:41.151Z,15.10
2019-05-01T12:12:22.857Z,15.10
2019-05-01T12:15:07.835Z,15.40
2019-05-01T12:17:49.202Z,15.40
2019-05-01T12:20:28.875Z,15.20
2019-05-01T12:22:56.417Z,15.50
2019-05-01T12:25:37.070Z,15.80
2019-05-01T12:28:06.385Z,15.90
2019-05-01T12:30:55.086Z,16.00
2019-05-01T12:33:24.245Z,16.00
2019-05-01T12:36:12.994Z,16.10
2019-05-01T12:38:54.629Z,16.40
2019-05-01T12:44:36.056Z,16.70
2019-05-01T12:47:38.026Z,17.20
2019-05-01T12:50:17.201Z,17.00
2019-05-01T12:53:16.848Z,16.90
2019-05-01T12:56:17.179Z,17.10
2019-05-01T12:58:58.702Z,17.00
2019-05-01T13:01:39.770Z,17.10
2019-05-01T13:04:20.763Z,17.10
2019-05-01T13:07:01.998Z,16.70
2019-05-01T13:09:30.247Z,17.20
2019-05-01T13:12:18.775Z,17.40
2019-05-01T13:20:21.825Z,17.10
2019-05-01T13:23:01.367Z,17.00
2019-05-01T13:25:42.080Z,16.90
2019-05-01T13:28:42.434Z,16.60
2019-05-01T13:31:43.541Z,16.80
2019-05-01T13:34:28.380Z,16.80
2019-05-01T13:37:10.130Z,17.10
2019-05-01T13:39:51.250Z,16.60
2019-05-01T13:42:32.398Z,16.70
2019-05-01T13:45:13.479Z,16.60
2019-05-01T13:47:54.527Z,16.80
2019-05-01T13:50:34.805Z,16.90
2019-05-01T13:53:01.730Z,16.90
2019-05-01T13:55:48.318Z,17.30
2019-05-01T13:58:57.902Z,17.40
2019-05-01T14:01:27.529Z,17.80
2019-05-01T14:04:09.690Z,17.60
2019-05-01T14:06:50.213Z,17.70
2019-05-01T14:09:32.883Z,17.60
2019-05-01T14:12:13.934Z,17.40
2019-05-01T14:14:41.903Z,17.20
2019-05-01T14:17:29.457Z,17.40
2019-05-01T14:20:16.233Z,17.40
2019-05-01T14:26:10.382Z,17.90
2019-05-01T14:28:50.634Z,17.80
2019-05-01T14:31:38.542Z,17.40
2019-05-01T14:34:27.165Z,17.50
2019-05-01T14:37:08.647Z,17.20
2019-05-01T14:39:36.673Z,17.00
2019-05-01T14:42:25.617Z,17.00
2019-05-01T14:45:07.902Z,17.40
2019-05-01T14:47:48.830Z,17.80
2019-05-01T14:50:16.280Z,17.80
2019-05-01T14:53:03.354Z,17.80
2019-05-01T14:55:43.816Z,17.90
2019-05-01T14:58:25.046Z,18.00
2019-05-01T15:01:04.702Z,18.10
2019-05-01T15:03:31.981Z,18.10
2019-05-01T15:06:12.519Z,18.20
2019-05-01T15:08:40.861Z,18.40
2019-05-01T15:11:29.459Z,18.40
2019-05-01T15:17:24.066Z,18.50
2019-05-01T15:20:04.999Z,18.40
2019-05-01T15:22:45.902Z,18.20
2019-05-01T15:25:26.903Z,18.30
2019-05-01T15:28:07.677Z,18.20
2019-05-01T15:30:54.390Z,18.40
2019-05-01T15:33:41.762Z,18.10
2019-05-01T15:36:21.954Z,18.00
2019-05-01T15:39:03.553Z,18.20
2019-05-01T15:42:07.389Z,18.00
2019-05-01T15:44:48.098Z,17.90
2019-05-01T15:47:29.167Z,17.80
2019-05-01T15:49:58.857Z,17.70
2019-05-01T15:52:46.810Z,17.70
2019-05-01T15:55:28.518Z,17.60
2019-05-01T15:58:11.853Z,17.40
2019-05-01T16:00:40.213Z,17.40
2019-05-01T16:03:30.107Z,17.60
2019-05-01T16:06:09.994Z,17.60
2019-05-01T16:08:50.093Z,17.50
2019-05-01T16:11:49.634Z,17.50
2019-05-01T16:14:29.352Z,17.40
2019-05-01T16:17:09.358Z,17.50
2019-05-01T16:19:50.266Z,17.50
2019-05-01T16:22:31.540Z,17.30
2019-05-01T16:25:15.693Z,17.20
2019-05-01T16:27:56.263Z,17.20
2019-05-01T16:30:37.518Z,17.20
2019-05-01T16:33:05.987Z,17.30
2019-05-01T16:35:35.867Z,17.20
2019-05-01T16:38:24.515Z,17.30
2019-05-01T16:41:07.158Z,17.30
2019-05-01T16:43:47.159Z,17.10
2019-05-01T16:46:26.938Z,17.00
2019-05-01T16:49:07.094Z,16.70
2019-05-01T16:51:47.359Z,16.80
2019-05-01T16:54:27.438Z,16.60
2019-05-01T16:57:10.838Z,16.60
2019-05-01T16:59:51.978Z,16.60
2019-05-01T17:02:42.875Z,16.70
2019-05-01T17:05:51.222Z,16.80
2019-05-01T17:08:48.251Z,16.80
2019-05-01T17:11:31.809Z,16.80
2019-05-01T17:14:13.869Z,16.70
2019-05-01T17:16:54.070Z,16.50
2019-05-01T17:19:34.334Z,16.50
2019-05-01T17:22:16.057Z,16.50
2019-05-01T17:24:56.778Z,16.50
2019-05-01T17:27:36.806Z,16.30
2019-05-01T17:30:19.963Z,16.30
2019-05-01T17:33:00.955Z,16.40
2019-05-01T17:35:43.168Z,16.40
2019-05-01T17:38:24.061Z,16.30
2019-05-01T17:41:04.847Z,16.30
2019-05-01T17:43:33.818Z,16.30
2019-05-01T17:46:05.886Z,16.30
2019-05-01T17:49:09.166Z,16.00
2019-05-01T17:51:47.545Z,15.90
2019-05-01T17:54:27.545Z,15.70
2019-05-01T17:57:07.551Z,15.60
2019-05-01T17:59:50.182Z,15.70
2019-05-01T18:05:56.189Z,15.90
2019-05-01T18:08:35.339Z,15.70
2019-05-01T18:11:16.226Z,15.60
2019-05-01T18:13:57.370Z,15.60
2019-05-01T18:16:40.886Z,15.30
2019-05-01T18:19:22.440Z,15.30
2019-05-01T18:22:09.050Z,15.10
2019-05-01T18:28:29.964Z,15.20
2019-05-01T18:31:18.985Z,15.10
2019-05-01T18:34:02.615Z,15.00
2019-05-01T18:36:49.898Z,15.30
2019-05-01T18:39:36.234Z,15.20
2019-05-01T18:42:06.527Z,15.20
2019-05-01T18:44:55.077Z,15.20
2019-05-01T18:47:24.592Z,15.20
2019-05-01T18:50:13.662Z,15.00
2019-05-01T18:53:13.914Z,14.90
2019-05-01T18:55:42.554Z,14.90
2019-05-01T18:58:31.108Z,14.80
2019-05-01T19:01:11.311Z,14.80
2019-05-01T19:06:54.461Z,14.70
2019-05-01T19:09:29.727Z,14.70
2019-05-01T19:12:12.454Z,14.50
2019-05-01T19:14:54.775Z,14.60
2019-05-01T19:17:35.723Z,14.60
2019-05-01T19:20:16.665Z,14.30
2019-05-01T19:22:57.940Z,14.40
2019-05-01T19:25:38.021Z,14.40
2019-05-01T19:31:05.594Z,14.20
2019-05-01T19:33:45.238Z,14.10
2019-05-01T19:36:12.464Z,14.00
2019-05-01T19:38:39.591Z,14.00
2019-05-01T19:41:19.806Z,13.90
2019-05-01T19:44:01.143Z,13.80
2019-05-01T19:46:42.100Z,13.70
2019-05-01T19:49:10.280Z,13.70
2019-05-01T19:51:38.241Z,13.60
2019-05-01T19:54:19.081Z,13.60
2019-05-01T19:56:47.128Z,13.50
2019-05-01T19:59:35.914Z,13.40
2019-05-01T20:02:22.088Z,13.30
2019-05-01T20:05:00.713Z,13.30
2019-05-01T20:07:40.877Z,13.10
2019-05-01T20:13:11.830Z,13.10
2019-05-01T20:16:16.093Z,13.00
2019-05-01T20:18:44.452Z,12.90
2019-05-01T20:21:32.041Z,12.90
2019-05-01T20:24:14.449Z,12.90
2019-05-01T20:26:55.302Z,12.80
2019-05-01T20:29:36.792Z,12.80
2019-05-01T20:32:21.188Z,12.70
2019-05-01T20:35:00.033Z,12.40
2019-05-01T20:37:40.369Z,12.50
2019-05-01T20:40:11.335Z,12.50
2019-05-01T20:43:05.891Z,12.50
2019-05-01T20:45:51.971Z,12.50
2019-05-01T20:48:33.046Z,12.50
2019-05-01T20:51:14.094Z,12.50
2019-05-01T20:53:55.382Z,12.30
2019-05-01T20:59:35.226Z,12.30
2019-05-01T21:02:07.721Z,12.30
2019-05-01T21:05:32.241Z,12.00
2019-05-01T21:08:39.094Z,12.10
2019-05-01T21:11:42.286Z,12.10
2019-05-01T21:14:23.240Z,12.00
2019-05-01T21:17:04.419Z,11.90
2019-05-01T21:19:45.345Z,12.00
2019-05-01T21:22:26.199Z,11.80
2019-05-01T21:25:06.368Z,12.00
2019-05-01T21:27:46.717Z,12.10
2019-05-01T21:30:26.925Z,12.10
2019-05-01T21:33:11.933Z,12.10
2019-05-01T21:35:40.032Z,12.30
2019-05-01T21:38:27.761Z,12.30
2019-05-01T21:41:09.908Z,12.10
2019-05-01T21:43:52.958Z,12.10
2019-05-01T21:46:34.175Z,12.10
2019-05-01T21:49:15.413Z,12.10
2019-05-01T21:51:56.753Z,12.10
2019-05-01T21:54:37.745Z,12.10
2019-05-01T21:57:19.212Z,12.10
2019-05-01T21:59:58.898Z,12.10
2019-05-01T22:02:41.587Z,12.10
2019-05-01T22:05:19.930Z,12.00
2019-05-01T22:08:03.813Z,12.00
2019-05-01T22:10:51.690Z,12.00
2019-05-01T22:13:25.538Z,12.00
2019-05-01T22:19:27.778Z,11.90
2019-05-01T22:22:16.701Z,11.70
2019-05-01T22:25:09.890Z,11.80
2019-05-01T22:27:56.550Z,11.80
2019-05-01T22:31:02.830Z,11.70
2019-05-01T22:33:44.465Z,11.60
2019-05-01T22:36:24.950Z,11.60
2019-05-01T22:39:07.198Z,11.50
2019-05-01T22:41:47.921Z,11.50
2019-05-01T22:44:29.109Z,11.40
2019-05-01T22:50:40.006Z,11.30
2019-05-01T22:53:26.586Z,11.30
2019-05-01T22:56:06.715Z,11.20
2019-05-01T22:58:46.550Z,11.30
2019-05-01T23:01:18.203Z,11.20
2019-05-01T23:04:12.197Z,11.20
2019-05-01T23:07:00.746Z,11.10
2019-05-01T23:09:46.005Z,11.10
2019-05-01T23:12:27.090Z,11.00
2019-05-01T23:15:12.094Z,11.00
2019-05-01T23:17:53.046Z,11.10
2019-05-01T23:20:34.750Z,10.90
2019-05-01T23:23:17.313Z,10.80
2019-05-01T23:25:57.283Z,10.80
2019-05-01T23:28:39.860Z,10.80
2019-05-01T23:31:19.675Z,10.80
2019-05-01T23:33:59.107Z,10.70
2019-05-01T23:36:38.922Z,10.70
2019-05-01T23:39:19.961Z,10.60
2019-05-01T23:42:00.327Z,10.70
2019-05-01T23:44:42.939Z,10.60
2019-05-01T23:47:24.551Z,10.70
2019-05-01T23:50:05.459Z,10.60
2019-05-01T23:52:46.546Z,10.60
2019-05-01T23:55:27.685Z,10.60
2019-05-01T23:58:11.225Z,10.60
